Main page
METAR-TAF:

METAR-TAF

Airports :

Bordj Mokhtar Airport

Bordj Badji Mokhtar, Algeria

latitude: 21-22-30N, longitude: 000-55-26E, elevation: 396 m

Current weather observation

The report was made 45 minutes ago, at 06:00 UTC
Wind 6 kt from the South/Southeast
Temperature 19°C
Humidity 15%
Pressure 1015 hPa
Visibility 10 km or more
no clouds below 1500 m and no cumulonimbus

METAR: DATM 080600Z 16006KT CAVOK 19/M08 Q1015

Time: 07:45 (06:45 UTC)

Forecast

The report was made 13 hours and 45 minutes ago, at 17:00 UTC
Forecast valid from 07 at 18 UTC to 08 at 03 UTC
Wind 8 kt from the East/Southeast
Visibility 10 km or more
no clouds below 1500 m and no cumulonimbus

TAF: DATM 071700Z 0718/0803 12008KT CAVOK

Weather observations and forecasts of more than 4000 airports (METAR and TAF reports).

The available stations are represented by yellow and red dots on the map.

Hover mouse over dot to see the name of the station.

Then click to see weather observations and forecasts.

To change the map : click on the green buttons with a black cross to zoom in, on the green button with a dash to zoom out, or on the green arrows for adjacent maps.


METAR-TAF: